Time;durP1;ratioP1;P1;durP2;ratioP2;P2;SDS_P1;SDS_P2;PMS_P1;PMS_P2;Temp;Humidity;BMP_temperature;BMP_pressure;BME280_temperature;BME280_humidity;BME280_pressure;Samples;Min_cycle;Max_cycle;Signal;HPM_P1;HPM_P2
2021/12/06 00:01:31;;;;;;;14.40;4.50;;;;;;;1.92;100.00;95417.03;5056258;28;20218;-87
2021/12/06 00:04:06;;;;;;;9.73;4.37;;;;;;;1.83;100.00;95410.25;5037531;28;20210;-87
2021/12/06 00:06:37;;;;;;;11.00;4.50;;;;;;;1.82;100.00;95413.91;5059904;28;20223;-87
2021/12/06 00:09:07;;;;;;;9.50;4.13;;;;;;;1.85;100.00;95430.31;5058276;28;20214;-87
2021/12/06 00:11:35;;;;;;;8.17;4.10;;;;;;;1.86;100.00;95425.81;5039923;28;20258;-87
2021/12/06 00:14:06;;;;;;;5.67;3.03;;;;;;;1.82;100.00;95432.53;5026846;28;20237;-87
2021/12/06 00:16:33;;;;;;;7.77;3.30;;;;;;;1.77;100.00;95433.16;5039342;28;20226;-88
2021/12/06 00:19:02;;;;;;;6.73;3.37;;;;;;;1.79;100.00;95441.75;5014425;28;20297;-87
2021/12/06 00:21:31;;;;;;;8.67;3.57;;;;;;;1.80;100.00;95442.56;5020384;28;20195;-87
2021/12/06 00:23:58;;;;;;;6.67;3.30;;;;;;;1.78;100.00;95434.81;5030679;28;20230;-87
2021/12/06 00:26:25;;;;;;;5.73;3.03;;;;;;;1.77;100.00;95433.16;5025479;28;20253;-87
2021/12/06 00:28:57;;;;;;;6.60;3.50;;;;;;;1.73;100.00;95431.91;5039482;28;20211;-87
2021/12/06 00:31:27;;;;;;;5.37;3.30;;;;;;;1.76;100.00;95446.66;5023107;28;20490;-87
2021/12/06 00:33:59;;;;;;;5.30;3.10;;;;;;;1.76;100.00;95442.16;5046349;28;20297;-87
2021/12/06 00:36:31;;;;;;;7.73;3.73;;;;;;;1.81;100.00;95453.00;5020963;28;20218;-87
2021/12/06 00:38:59;;;;;;;5.47;3.10;;;;;;;1.81;100.00;95449.53;5023218;28;20204;-88
2021/12/06 00:41:27;;;;;;;7.13;3.30;;;;;;;1.77;100.00;95448.31;5042292;28;20198;-88
2021/12/06 00:43:55;;;;;;;5.57;3.20;;;;;;;1.73;100.00;95441.72;5025521;28;20227;-87
2021/12/06 00:46:22;;;;;;;5.57;2.90;;;;;;;1.74;100.00;95457.50;5025568;28;20215;-88
2021/12/06 00:48:50;;;;;;;4.37;3.10;;;;;;;1.75;100.00;95445.00;5025870;28;20211;-87
2021/12/06 00:51:18;;;;;;;5.03;2.90;;;;;;;1.74;100.00;95448.69;5023658;28;20206;-88
2021/12/06 00:53:46;;;;;;;4.87;2.43;;;;;;;1.70;100.00;95453.56;5038952;28;20210;-88
2021/12/06 00:56:16;;;;;;;2.53;1.90;;;;;;;1.67;100.00;95458.47;5052862;28;20227;-87
2021/12/06 00:58:45;;;;;;;2.73;2.00;;;;;;;1.69;100.00;95456.44;5055002;28;20214;-87
2021/12/06 01:01:12;;;;;;;2.63;1.77;;;;;;;1.70;100.00;95461.53;5041475;28;20203;-87
2021/12/06 01:03:41;;;;;;;2.20;1.70;;;;;;;1.67;100.00;95447.84;5027561;28;20313;-88
2021/12/06 01:06:10;;;;;;;3.40;2.63;;;;;;;1.65;100.00;95455.19;5037785;28;20208;-87
2021/12/06 01:08:38;;;;;;;2.87;2.13;;;;;;;1.68;100.00;95466.28;5038606;28;20523;-87
2021/12/06 01:11:09;;;;;;;1.87;1.60;;;;;;;1.65;100.00;95469.31;5037211;28;20242;-87
2021/12/06 01:13:39;;;;;;;1.67;1.33;;;;;;;1.66;100.00;95468.31;5036570;28;20231;-88
2021/12/06 01:16:07;;;;;;;2.63;1.40;;;;;;;1.64;100.00;95474.81;5026939;28;20265;-87
2021/12/06 01:18:36;;;;;;;1.40;1.30;;;;;;;1.63;100.00;95474.00;5026237;28;20215;-87
2021/12/06 01:21:11;;;;;;;1.97;1.50;;;;;;;1.63;100.00;95478.50;5022201;28;20202;-88
2021/12/06 01:23:51;;;;;;;2.53;1.30;;;;;;;1.62;100.00;95487.50;5018333;28;20222;-87
2021/12/06 01:29:38;;;;;;;2.40;1.40;;;;;;;1.61;100.00;95491.19;5019893;28;20207;-87
2021/12/06 01:32:15;;;;;;;2.07;1.50;;;;;;;1.61;100.00;95488.53;5025686;28;20257;-87
2021/12/06 01:40:13;;;;;;;1.93;1.30;;;;;;;1.65;100.00;95511.06;5019963;28;20214;-87
2021/12/06 01:42:42;;;;;;;2.13;1.80;;;;;;;1.69;100.00;95525.63;5057826;28;20223;-87
2021/12/06 01:45:10;;;;;;;2.00;1.80;;;;;;;1.69;100.00;95520.31;5019561;28;20212;-88
2021/12/06 01:47:41;;;;;;;2.20;1.87;;;;;;;1.66;100.00;95515.38;5039199;28;20206;-87
2021/12/06 01:50:17;;;;;;;3.13;1.80;;;;;;;1.64;100.00;95512.06;5027080;28;20209;-87
2021/12/06 01:52:50;;;;;;;4.37;1.87;;;;;;;1.64;100.00;95512.91;5021327;28;20209;-87
2021/12/06 01:55:21;;;;;;;2.20;1.70;;;;;;;1.66;100.00;95521.53;5019041;28;20348;-87
2021/12/06 01:57:50;;;;;;;1.80;1.60;;;;;;;1.65;100.00;95519.88;5042055;28;20235;-87
2021/12/06 02:00:21;;;;;;;2.07;1.77;;;;;;;1.65;100.00;95524.38;5037533;28;20245;-87
2021/12/06 02:02:54;;;;;;;2.97;2.10;;;;;;;1.53;100.00;95511.59;5024613;28;20220;-87
2021/12/06 02:05:29;;;;;;;2.33;1.80;;;;;;;1.49;100.00;95520.19;5027328;28;20198;-87
2021/12/06 02:07:58;;;;;;;2.60;2.03;;;;;;;1.48;100.00;95524.66;5026103;28;20258;-87
2021/12/06 02:10:27;;;;;;;2.53;2.00;;;;;;;1.43;100.00;95532.41;5022741;28;20211;-88
2021/12/06 02:12:56;;;;;;;3.90;2.37;;;;;;;1.50;100.00;95535.13;5028776;28;20285;-87
2021/12/06 02:15:36;;;;;;;2.70;2.27;;;;;;;1.46;100.00;95537.34;5028735;28;20203;-86
2021/12/06 02:18:11;;;;;;;2.70;1.93;;;;;;;1.44;100.00;95534.06;5026477;28;20277;-87
2021/12/06 02:20:46;;;;;;;2.00;1.60;;;;;;;1.41;100.00;95534.44;5041897;28;20210;-87
2021/12/06 02:23:15;;;;;;;3.80;2.10;;;;;;;1.46;100.00;95534.69;5056859;28;20218;-87
2021/12/06 02:25:43;;;;;;;2.80;1.80;;;;;;;1.41;100.00;95525.66;5044738;28;20202;-87
2021/12/06 02:28:11;;;;;;;1.87;1.60;;;;;;;1.44;100.00;95539.41;5028437;28;20210;-88
2021/12/06 02:30:38;;;;;;;2.97;1.70;;;;;;;1.43;100.00;95543.06;5042528;28;20215;-87
2021/12/06 02:33:06;;;;;;;3.20;2.10;;;;;;;1.41;100.00;95539.78;5018860;28;20213;-87
2021/12/06 02:35:34;;;;;;;3.30;1.90;;;;;;;1.41;100.00;95538.94;5020640;28;20207;-87
2021/12/06 02:38:07;;;;;;;2.07;1.77;;;;;;;1.49;100.00;95552.94;5042148;28;20206;-87
2021/12/06 02:40:39;;;;;;;2.47;1.87;;;;;;;1.44;100.00;95543.88;5028593;28;20289;-87
2021/12/06 02:43:10;;;;;;;2.57;2.00;;;;;;;1.49;100.00;95546.78;5031567;28;20238;-87
2021/12/06 02:45:39;;;;;;;1.90;1.70;;;;;;;1.55;100.00;95551.31;5057514;28;20223;-87
2021/12/06 02:48:09;;;;;;;2.33;1.80;;;;;;;1.58;100.00;95558.09;5026663;28;20207;-87
2021/12/06 02:50:44;;;;;;;4.47;1.90;;;;;;;1.62;100.00;95560.16;5045680;28;20221;-87
2021/12/06 02:53:12;;;;;;;4.07;2.17;;;;;;;1.60;100.00;95553.41;5060796;28;20217;-87
2021/12/06 02:55:42;;;;;;;2.70;1.80;;;;;;;1.65;100.00;95559.78;5028975;28;20225;-87
2021/12/06 02:58:21;;;;;;;5.23;2.03;;;;;;;1.68;100.00;95566.56;5056790;28;20241;-87
2021/12/06 03:00:56;;;;;;;2.47;1.90;;;;;;;1.65;100.00;95557.13;5021774;28;20261;-88
2021/12/06 03:03:24;;;;;;;2.40;1.70;;;;;;;1.69;100.00;95568.22;5024792;28;20580;-87
2021/12/06 03:05:52;;;;;;;2.40;1.90;;;;;;;1.62;100.00;95565.47;5025987;28;20227;-87
2021/12/06 03:08:35;;;;;;;2.70;1.83;;;;;;;1.63;100.00;95566.31;5039590;28;20302;-87
2021/12/06 03:11:06;;;;;;;3.20;2.27;;;;;;;1.68;100.00;95574.56;5035951;28;20282;-87
2021/12/06 03:13:33;;;;;;;2.23;2.03;;;;;;;1.67;100.00;95578.22;5025841;28;20198;-87
2021/12/06 03:16:01;;;;;;;2.57;1.60;;;;;;;1.62;100.00;95578.78;5020378;28;20203;-87
2021/12/06 03:18:28;;;;;;;4.30;2.20;;;;;;;1.55;100.00;95571.78;5041575;28;20207;-88
2021/12/06 03:20:56;;;;;;;3.17;2.20;;;;;;;1.56;100.00;95578.75;5039261;28;20341;-88
2021/12/06 03:23:23;;;;;;;3.73;2.00;;;;;;;1.57;100.00;95588.38;5024919;28;20237;-87
2021/12/06 03:25:51;;;;;;;2.63;2.10;;;;;;;1.58;100.00;95588.19;5026468;28;20576;-87
2021/12/06 03:28:20;;;;;;;1.90;1.70;;;;;;;1.57;100.00;95588.38;5026315;28;20305;-88
2021/12/06 03:30:48;;;;;;;3.97;2.30;;;;;;;1.56;100.00;95597.38;5023884;28;20203;-87
2021/12/06 03:33:15;;;;;;;2.20;2.00;;;;;;;1.56;100.00;95597.38;5024599;28;20199;-86
2021/12/06 03:35:43;;;;;;;3.87;2.10;;;;;;;1.53;100.00;95602.06;5021620;28;20211;-88
2021/12/06 03:38:11;;;;;;;4.33;2.07;;;;;;;1.52;100.00;95605.75;5024408;28;20200;-87
2021/12/06 03:40:38;;;;;;;2.53;1.80;;;;;;;1.52;100.00;95611.06;5038981;28;20203;-87
2021/12/06 03:43:06;;;;;;;3.17;1.60;;;;;;;1.51;100.00;95604.09;5021390;28;20244;-86
2021/12/06 03:45:37;;;;;;;3.30;1.60;;;;;;;1.53;100.00;95609.25;5028035;28;20318;-88
2021/12/06 03:48:05;;;;;;;2.10;1.43;;;;;;;1.48;100.00;95607.13;5058847;28;20199;-87
2021/12/06 03:50:32;;;;;;;1.47;1.23;;;;;;;1.49;100.00;95616.78;5022448;28;20203;-87
2021/12/06 03:53:00;;;;;;;2.63;1.90;;;;;;;1.47;100.00;95624.09;5040126;28;20267;-87
2021/12/06 03:55:28;;;;;;;6.90;1.50;;;;;;;1.42;100.00;95623.88;5025184;28;20203;-87
2021/12/06 03:57:55;;;;;;;2.30;1.63;;;;;;;1.35;100.00;95625.66;5040920;28;20234;-87
2021/12/06 04:00:23;;;;;;;2.53;1.70;;;;;;;1.32;100.00;95622.53;5022486;28;20211;-88
2021/12/06 04:02:58;;;;;;;2.27;1.80;;;;;;;1.29;100.00;95625.56;5022833;28;20199;-87
2021/12/06 04:05:25;;;;;;;2.63;1.67;;;;;;;1.29;100.00;95630.88;5057076;28;20207;-88
2021/12/06 04:07:53;;;;;;;3.70;1.63;;;;;;;1.27;100.00;95628.44;5021116;28;20241;-88
2021/12/06 04:10:20;;;;;;;2.60;1.70;;;;;;;1.28;100.00;95639.88;5032872;28;20303;-88
2021/12/06 04:12:49;;;;;;;1.87;1.70;;;;;;;1.24;100.00;95639.44;5053559;28;20211;-87
2021/12/06 04:15:17;;;;;;;3.47;1.80;;;;;;;1.13;100.00;95635.47;5024948;28;20198;-87
2021/12/06 04:17:45;;;;;;;3.17;2.00;;;;;;;1.12;100.00;95630.31;5039222;28;20196;-87
2021/12/06 04:20:15;;;;;;;3.97;2.17;;;;;;;1.07;100.00;95632.72;5027602;28;20229;-87
2021/12/06 04:22:43;;;;;;;2.47;2.10;;;;;;;1.03;100.00;95632.28;5016787;28;20217;-87
2021/12/06 04:25:12;;;;;;;3.37;2.30;;;;;;;1.05;100.00;95627.59;5034057;28;20220;-88
2021/12/06 04:27:41;;;;;;;2.63;2.20;;;;;;;1.04;100.00;95630.44;5022774;28;20226;-87
2021/12/06 04:30:11;;;;;;;3.60;2.20;;;;;;;1.04;100.00;95641.91;5022060;28;20209;-87
2021/12/06 04:32:39;;;;;;;4.97;2.30;;;;;;;1.06;100.00;95637.22;5024852;28;20274;-87
2021/12/06 04:35:07;;;;;;;2.43;2.13;;;;;;;1.01;100.00;95641.47;5039536;28;20202;-87
2021/12/06 04:37:36;;;;;;;2.50;2.30;;;;;;;0.95;100.00;95645.69;5016677;28;20206;-88
2021/12/06 04:40:05;;;;;;;4.13;2.33;;;;;;;0.99;100.00;95649.63;5034656;28;20209;-87
2021/12/06 04:42:33;;;;;;;3.30;2.33;;;;;;;1.03;100.00;95658.84;5043405;28;20213;-87
2021/12/06 04:45:01;;;;;;;4.10;2.27;;;;;;;1.08;100.00;95661.78;5022872;28;20220;-86
2021/12/06 04:47:31;;;;;;;2.73;2.20;;;;;;;1.12;100.00;95657.72;5039934;28;20210;-87
2021/12/06 04:49:58;;;;;;;4.13;2.40;;;;;;;1.12;100.00;95663.06;5023283;28;20206;-88
2021/12/06 04:52:26;;;;;;;2.20;2.00;;;;;;;1.17;100.00;95665.16;5021266;28;20230;-87
2021/12/06 04:54:58;;;;;;;2.30;2.10;;;;;;;1.20;100.00;95674.56;5040862;28;20199;-87
2021/12/06 04:57:31;;;;;;;3.60;2.50;;;;;;;1.21;100.00;95671.72;5035300;28;20235;-87
2021/12/06 05:00:05;;;;;;;2.30;2.10;;;;;;;1.23;100.00;95680.34;5051568;28;20211;-88
2021/12/06 05:02:38;;;;;;;4.00;2.30;;;;;;;1.21;100.00;95682.38;5024843;28;20212;-87
2021/12/06 05:05:14;;;;;;;3.03;2.50;;;;;;;1.21;100.00;95682.38;5050888;28;20218;-88
2021/12/06 05:07:46;;;;;;;3.00;2.27;;;;;;;1.24;100.00;95684.66;5023497;28;20275;-88
2021/12/06 05:10:16;;;;;;;2.50;2.13;;;;;;;1.21;100.00;95679.72;5019401;28;20207;-87
2021/12/06 05:12:46;;;;;;;2.00;1.80;;;;;;;1.25;100.00;95694.28;5037752;28;20326;-88
2021/12/06 05:15:14;;;;;;;4.63;3.03;;;;;;;1.20;100.00;95696.66;5012971;28;20229;-87
2021/12/06 05:17:44;;;;;;;5.07;3.13;;;;;;;1.16;100.00;95695.41;5021394;28;20205;-89
2021/12/06 05:20:14;;;;;;;2.53;2.00;;;;;;;1.13;100.00;95701.09;5026880;28;20198;-87
2021/12/06 05:22:45;;;;;;;3.10;2.37;;;;;;;1.09;100.00;95702.50;5015679;28;20214;-87
2021/12/06 05:25:13;;;;;;;4.50;3.00;;;;;;;1.11;100.00;95705.78;5020005;28;20242;-87
2021/12/06 05:27:43;;;;;;;4.07;2.60;;;;;;;1.17;100.00;95709.53;5043632;28;20204;-88
2021/12/06 05:30:14;;;;;;;4.43;2.60;;;;;;;1.12;100.00;95720.72;5056728;28;20215;-88
2021/12/06 05:32:44;;;;;;;3.13;2.20;;;;;;;1.16;100.00;95715.88;5024812;28;20241;-88
2021/12/06 05:35:12;;;;;;;8.00;4.77;;;;;;;1.08;100.00;95717.63;5057549;28;20198;-87
2021/12/06 05:37:43;;;;;;;3.20;2.30;;;;;;;1.04;100.00;95734.13;5049392;28;20211;-87
2021/12/06 05:40:13;;;;;;;4.70;2.40;;;;;;;1.00;100.00;95717.75;5039454;28;20207;-88
2021/12/06 05:42:43;;;;;;;3.10;2.57;;;;;;;0.90;100.00;95725.19;5038700;28;20327;-87
2021/12/06 05:45:12;;;;;;;2.83;2.43;;;;;;;0.99;100.00;95739.19;5056388;28;20241;-88
2021/12/06 05:47:45;;;;;;;2.90;2.30;;;;;;;0.94;100.00;95746.88;5039244;28;20209;-87
2021/12/06 05:50:20;;;;;;;4.27;2.70;;;;;;;0.93;100.00;95748.72;5062175;28;20213;-88
2021/12/06 05:52:49;;;;;;;4.03;2.20;;;;;;;0.95;100.00;95756.50;5024256;28;20209;-87
2021/12/06 05:55:16;;;;;;;4.00;2.87;;;;;;;0.99;100.00;95763.09;5021010;28;20196;-87
2021/12/06 05:57:46;;;;;;;4.33;3.00;;;;;;;0.93;100.00;95763.84;5020957;28;20257;-87
2021/12/06 06:00:17;;;;;;;3.70;3.13;;;;;;;0.93;100.00;95766.50;5031630;28;20226;-87
2021/12/06 06:02:46;;;;;;;3.40;3.10;;;;;;;0.86;100.00;95762.91;5025378;28;20210;-88
2021/12/06 06:05:14;;;;;;;4.27;3.37;;;;;;;0.86;100.00;95770.91;5029466;28;20220;-88
2021/12/06 06:07:41;;;;;;;7.97;3.30;;;;;;;0.84;100.00;95778.25;5031462;28;20214;-87
2021/12/06 06:10:10;;;;;;;5.50;4.00;;;;;;;0.91;100.00;95784.47;5018846;28;20214;-87
2021/12/06 06:12:38;;;;;;;5.23;3.50;;;;;;;0.84;100.00;95772.94;5037343;28;20211;-88
2021/12/06 06:15:07;;;;;;;4.10;3.47;;;;;;;0.90;100.00;95786.31;5019384;28;20271;-87
2021/12/06 06:17:40;;;;;;;2.97;2.63;;;;;;;0.89;100.00;95789.97;5051118;28;20204;-87
2021/12/06 06:20:12;;;;;;;4.27;2.90;;;;;;;0.92;100.00;95794.09;5023743;28;20202;-88
2021/12/06 06:22:39;;;;;;;6.93;2.80;;;;;;;0.91;100.00;95792.44;5037750;28;20211;-88
2021/12/06 06:25:08;;;;;;;3.47;2.60;;;;;;;0.88;100.00;95793.63;5046394;28;20254;-87
2021/12/06 06:27:35;;;;;;;3.23;2.70;;;;;;;0.87;100.00;95788.50;5029229;28;20242;-88
2021/12/06 06:30:05;;;;;;;5.03;3.10;;;;;;;0.80;100.00;95784.94;5020585;28;20223;-87
2021/12/06 06:32:34;;;;;;;4.00;3.20;;;;;;;0.80;100.00;95792.91;5038032;28;20209;-88
2021/12/06 06:35:03;;;;;;;3.80;2.63;;;;;;;0.80;100.00;95796.38;5020028;28;20199;-87
2021/12/06 06:37:30;;;;;;;2.67;2.47;;;;;;;0.87;100.00;95799.13;5044512;28;20235;-87
2021/12/06 06:39:58;;;;;;;4.60;3.10;;;;;;;0.98;100.00;95806.66;5021727;28;20253;-87
2021/12/06 06:42:27;;;;;;;4.50;3.03;;;;;;;0.96;100.00;95806.81;5026842;28;20236;-88
2021/12/06 06:44:56;;;;;;;4.90;3.03;;;;;;;0.99;100.00;95811.78;5018961;28;20284;-87
2021/12/06 06:47:25;;;;;;;3.87;3.03;;;;;;;1.01;100.00;95814.25;5024376;28;20210;-87
2021/12/06 06:49:54;;;;;;;6.87;3.03;;;;;;;0.98;100.00;95812.78;5031700;28;20311;-88
2021/12/06 06:52:21;;;;;;;4.23;3.03;;;;;;;1.00;100.00;95807.28;5032684;28;20577;-87
2021/12/06 06:54:49;;;;;;;4.20;2.60;;;;;;;0.91;100.00;95811.06;5021597;28;20207;-88
2021/12/06 06:57:16;;;;;;;6.47;3.03;;;;;;;0.98;100.00;95831.41;5013961;28;20300;-88
2021/12/06 06:59:45;;;;;;;4.57;3.20;;;;;;;0.98;100.00;95831.41;5045046;28;20214;-88
2021/12/06 07:02:13;;;;;;;6.50;3.20;;;;;;;0.98;100.00;95833.22;5034766;28;20207;-88
2021/12/06 07:04:41;;;;;;;5.63;3.57;;;;;;;0.91;100.00;95834.97;5019885;28;20223;-87
2021/12/06 07:07:09;;;;;;;3.87;3.20;;;;;;;0.85;100.00;95847.13;5044630;28;20205;-87
2021/12/06 07:09:37;;;;;;;7.13;3.67;;;;;;;0.84;100.00;95844.69;5033582;28;20214;-87
2021/12/06 07:12:06;;;;;;;6.73;3.70;;;;;;;0.86;100.00;95847.97;5010587;28;20226;-87
2021/12/06 07:14:33;;;;;;;4.30;2.77;;;;;;;0.85;100.00;95851.66;5046479;28;20205;-88
2021/12/06 07:17:00;;;;;;;3.80;2.47;;;;;;;0.83;100.00;95845.69;5041191;28;20207;-87
2021/12/06 07:19:28;;;;;;;3.30;2.40;;;;;;;0.88;100.00;95851.28;5032235;28;20282;-87
2021/12/06 07:21:55;;;;;;;3.03;2.60;;;;;;;0.87;100.00;95844.31;5031448;28;20217;-87
2021/12/06 07:24:23;;;;;;;4.37;2.90;;;;;;;0.88;100.00;95852.09;5018969;28;20385;-87
2021/12/06 07:26:51;;;;;;;4.57;2.83;;;;;;;1.03;100.00;95866.22;5015168;28;20217;-87
2021/12/06 07:29:18;;;;;;;4.27;3.27;;;;;;;0.98;100.00;95865.13;5046119;28;20216;-87
2021/12/06 07:31:45;;;;;;;5.23;3.53;;;;;;;0.92;100.00;95855.22;5014975;28;20340;-87
2021/12/06 07:34:13;;;;;;;4.77;3.10;;;;;;;0.97;100.00;95866.97;5023326;28;20225;-87
2021/12/06 07:36:40;;;;;;;5.17;3.33;;;;;;;1.04;100.00;95877.69;5048487;28;20232;-87
2021/12/06 07:39:07;;;;;;;9.20;4.33;;;;;;;1.04;100.00;95873.19;5030558;28;20211;-87
2021/12/06 07:41:38;;;;;;;5.80;4.50;;;;;;;1.05;100.00;95882.81;5044664;28;20200;-87
2021/12/06 07:44:06;;;;;;;5.43;4.03;;;;;;;1.09;100.00;95885.94;5018925;28;20206;-87
2021/12/06 07:46:33;;;;;;;6.60;4.27;;;;;;;1.10;100.00;95895.59;5020608;28;20202;-87
2021/12/06 07:49:01;;;;;;;6.73;4.13;;;;;;;1.10;100.00;95887.59;5048271;28;20206;-87
2021/12/06 07:51:30;;;;;;;6.97;4.00;;;;;;;1.13;100.00;95892.53;5031595;28;20220;-87
2021/12/06 07:53:58;;;;;;;5.70;4.07;;;;;;;1.19;100.00;95897.16;5044948;28;20205;-87
2021/12/06 07:56:26;;;;;;;6.63;4.70;;;;;;;1.24;100.00;95904.56;5018708;28;20469;-87
2021/12/06 07:58:57;;;;;;;6.00;4.10;;;;;;;1.28;100.00;95911.97;5044790;28;20217;-86
2021/12/06 08:01:24;;;;;;;6.47;4.13;;;;;;;1.27;100.00;95910.34;5017600;28;20207;-88
2021/12/06 08:03:54;;;;;;;7.80;4.33;;;;;;;1.30;100.00;95912.63;5046060;28;20300;-87
2021/12/06 08:06:21;;;;;;;8.53;5.77;;;;;;;1.35;100.00;95920.06;5012478;28;20230;-88
2021/12/06 08:08:49;;;;;;;15.20;11.37;;;;;;;1.31;100.00;95908.13;5037366;28;20237;-88
2021/12/06 08:11:19;;;;;;;9.53;6.53;;;;;;;1.39;100.00;95924.00;5018408;28;20230;-87
2021/12/06 08:13:54;;;;;;;6.73;4.33;;;;;;;1.38;100.00;95923.16;5041220;28;20218;-88
2021/12/06 08:16:25;;;;;;;4.47;3.87;;;;;;;1.37;100.00;95934.00;5028994;28;20321;-87
2021/12/06 08:18:53;;;;;;;5.30;3.67;;;;;;;1.29;100.00;95929.59;5025588;28;20207;-87
2021/12/06 08:21:22;;;;;;;4.83;3.67;;;;;;;1.36;100.00;95941.13;5012918;28;20219;-87
2021/12/06 08:23:52;;;;;;;5.47;3.97;;;;;;;1.39;100.00;95942.63;5031757;28;20202;-88
2021/12/06 08:26:21;;;;;;;6.93;4.50;;;;;;;1.40;100.00;95952.25;5012326;28;20226;-87
2021/12/06 08:28:50;;;;;;;5.27;3.90;;;;;;;1.33;100.00;95941.53;5011244;28;20209;-87
2021/12/06 08:31:19;;;;;;;5.17;3.13;;;;;;;1.32;100.00;95950.50;5015262;28;20234;-88
2021/12/06 08:33:51;;;;;;;5.90;3.63;;;;;;;1.31;100.00;95943.53;5020218;28;20207;-87
2021/12/06 08:36:20;;;;;;;7.47;3.73;;;;;;;1.33;100.00;95948.69;5016042;28;20225;-87
2021/12/06 08:38:49;;;;;;;4.90;3.23;;;;;;;1.32;100.00;95955.00;5020700;28;20233;-87
2021/12/06 08:41:21;;;;;;;3.97;3.07;;;;;;;1.25;100.00;95951.44;5045657;28;20322;-87
2021/12/06 08:43:49;;;;;;;3.73;3.07;;;;;;;1.36;100.00;95962.41;5040960;28;20214;-87
2021/12/06 08:46:19;;;;;;;5.03;3.00;;;;;;;1.34;100.00;95956.47;5018943;28;20226;-87
2021/12/06 08:48:50;;;;;;;4.63;3.17;;;;;;;1.34;100.00;95959.13;5041719;28;20226;-87
2021/12/06 08:51:22;;;;;;;4.03;2.77;;;;;;;1.47;100.00;95979.78;5023230;28;20206;-88
2021/12/06 08:53:51;;;;;;;3.70;2.80;;;;;;;1.48;100.00;95979.59;5024446;28;20205;-87
2021/12/06 08:56:20;;;;;;;6.40;3.10;;;;;;;1.54;100.00;95980.69;5023882;28;20245;-87
2021/12/06 08:58:48;;;;;;;8.43;3.10;;;;;;;1.62;100.00;95982.44;5019798;28;20306;-85
2021/12/06 09:01:17;;;;;;;5.47;2.87;;;;;;;1.62;100.00;95988.56;5040818;28;20210;-85
2021/12/06 09:03:44;;;;;;;5.27;3.70;;;;;;;1.59;100.00;95977.50;5026165;28;20213;-85
2021/12/06 09:06:13;;;;;;;3.63;2.87;;;;;;;1.55;100.00;95979.69;5025783;28;20223;-84
2021/12/06 09:08:41;;;;;;;3.43;2.27;;;;;;;1.58;100.00;95984.66;5041092;28;20306;-85
2021/12/06 09:11:10;;;;;;;3.63;2.50;;;;;;;1.59;100.00;95988.13;5024218;28;20205;-85
2021/12/06 09:13:40;;;;;;;2.67;2.30;;;;;;;1.62;100.00;95996.56;5023851;28;20221;-88
2021/12/06 09:16:08;;;;;;;4.50;2.50;;;;;;;1.59;100.00;96004.09;5027029;28;20501;-86
2021/12/06 09:18:39;;;;;;;4.23;2.70;;;;;;;1.62;100.00;96003.72;5041951;28;20211;-85
2021/12/06 09:21:11;;;;;;;3.57;2.33;;;;;;;1.71;100.00;96006.09;5023462;28;20206;-84
2021/12/06 09:23:40;;;;;;;3.50;2.60;;;;;;;1.68;100.00;96008.31;5037837;28;20206;-84
2021/12/06 09:26:08;;;;;;;2.87;1.97;;;;;;;1.77;100.00;96017.88;5023348;28;20226;-87
2021/12/06 09:28:37;;;;;;;4.53;2.47;;;;;;;1.83;100.00;96025.13;5041849;28;20206;-86
2021/12/06 09:31:05;;;;;;;3.60;2.13;;;;;;;1.87;100.00;96026.41;5025384;28;20211;-85
2021/12/06 09:33:34;;;;;;;4.73;1.80;;;;;;;1.93;100.00;96028.34;5040092;28;20288;-87
2021/12/06 09:36:01;;;;;;;2.50;1.80;;;;;;;1.92;100.00;96021.34;5024298;28;20233;-86
2021/12/06 09:38:35;;;;;;;2.93;1.73;;;;;;;1.94;100.00;96027.31;5025822;28;20199;-86
2021/12/06 09:41:09;;;;;;;3.73;2.00;;;;;;;2.00;100.00;96023.09;5023811;28;20226;-86
2021/12/06 09:43:39;;;;;;;2.93;2.20;;;;;;;2.08;100.00;96028.31;5029673;28;20210;-83
2021/12/06 09:46:07;;;;;;;2.60;2.00;;;;;;;2.12;100.00;96034.94;5025968;28;20343;-84
2021/12/06 09:48:35;;;;;;;2.57;2.17;;;;;;;2.17;100.00;96029.88;5041862;28;20308;-86
2021/12/06 09:51:06;;;;;;;2.30;1.63;;;;;;;2.17;100.00;96027.19;5040254;28;20207;-86
2021/12/06 09:53:37;;;;;;;2.07;1.60;;;;;;;2.14;100.00;96028.38;5023795;28;20293;-86
2021/12/06 09:56:08;;;;;;;3.43;1.80;;;;;;;2.18;100.00;96031.53;5023800;28;20206;-86
2021/12/06 09:58:37;;;;;;;1.93;1.60;;;;;;;2.18;100.00;96037.69;5036450;28;20237;-84
2021/12/06 10:01:09;;;;;;;5.40;1.90;;;;;;;2.16;100.00;96036.19;5022714;28;20252;-85
2021/12/06 10:03:36;;;;;;;2.70;1.80;;;;;;;2.19;100.00;96027.84;5038083;28;20378;-86
2021/12/06 10:06:04;;;;;;;2.27;1.80;;;;;;;2.25;100.00;96033.25;5037221;28;20226;-82
2021/12/06 10:08:33;;;;;;;1.93;1.73;;;;;;;2.34;100.00;96030.47;5039074;28;20199;-83
2021/12/06 10:11:01;;;;;;;2.73;2.00;;;;;;;2.45;100.00;96032.66;5022640;28;20234;-83
2021/12/06 10:13:29;;;;;;;2.97;1.90;;;;;;;2.48;100.00;96022.44;5021456;28;20230;-81
2021/12/06 10:15:57;;;;;;;2.47;1.93;;;;;;;2.55;100.00;96028.66;5038727;28;20251;-82
2021/12/06 10:18:24;;;;;;;4.37;2.33;;;;;;;2.61;100.00;96019.13;5039509;28;20219;-82
2021/12/06 10:20:52;;;;;;;2.53;2.07;;;;;;;2.50;100.00;96019.59;5031056;28;20262;-82
2021/12/06 10:23:20;;;;;;;3.00;2.30;;;;;;;2.48;100.00;96016.28;5044778;28;20234;-83
2021/12/06 10:25:51;;;;;;;4.87;2.40;;;;;;;2.48;100.00;96010.97;5032740;28;20226;-83
2021/12/06 10:28:22;;;;;;;2.73;2.20;;;;;;;2.54;100.00;96010.22;5027994;28;20553;-82
2021/12/06 10:30:54;;;;;;;2.83;2.30;;;;;;;2.64;100.00;96008.06;5030960;28;20203;-82
2021/12/06 10:33:24;;;;;;;3.17;2.47;;;;;;;2.70;100.00;96015.31;5043615;28;20229;-80
2021/12/06 10:35:55;;;;;;;3.50;2.47;;;;;;;2.77;100.00;96015.38;5026837;28;20227;-84
2021/12/06 10:38:25;;;;;;;3.13;2.70;;;;;;;2.78;100.00;96012.53;5029416;28;20237;-83
2021/12/06 10:40:59;;;;;;;3.57;2.70;;;;;;;2.76;100.00;96009.22;5028214;28;20199;-84
2021/12/06 10:43:28;;;;;;;4.87;2.93;;;;;;;2.79;100.00;96011.50;5025158;28;20276;-83
2021/12/06 10:45:58;;;;;;;9.93;2.90;;;;;;;2.76;100.00;96003.06;5027312;28;20317;-83
2021/12/06 10:48:27;;;;;;;3.77;2.60;;;;;;;2.82;100.00;96011.09;5027505;28;20206;-83
2021/12/06 10:50:59;;;;;;;4.90;3.30;;;;;;;2.77;100.00;96005.53;5027287;28;20219;-82
2021/12/06 10:53:28;;;;;;;3.97;3.10;;;;;;;2.86;100.00;96011.56;5041463;28;20205;-82
2021/12/06 10:55:58;;;;;;;4.93;3.73;;;;;;;3.00;100.00;96006.16;5044735;28;20234;-82
2021/12/06 10:58:27;;;;;;;6.40;4.70;;;;;;;3.06;100.00;96009.91;5044379;28;20226;-83
2021/12/06 11:00:58;;;;;;;7.13;5.03;;;;;;;3.11;100.00;96007.50;5028687;28;20277;-82
2021/12/06 11:03:30;;;;;;;5.73;4.10;;;;;;;3.16;100.00;96014.91;5042532;28;20245;-83
2021/12/06 11:06:02;;;;;;;7.27;4.73;;;;;;;3.22;100.00;96019.50;5027847;28;20304;-82
2021/12/06 11:08:31;;;;;;;6.13;4.40;;;;;;;3.18;100.00;96016.38;5045201;28;20207;-82
2021/12/06 11:11:01;;;;;;;7.03;4.73;;;;;;;3.16;100.00;96015.72;5043399;28;20203;-82
2021/12/06 11:13:31;;;;;;;6.23;3.97;;;;;;;3.16;100.00;96006.91;5027243;28;20407;-82
2021/12/06 11:16:03;;;;;;;4.40;3.50;;;;;;;3.13;100.00;96016.13;5039936;28;20295;-82
2021/12/06 11:18:47;;;;;;;6.67;4.23;;;;;;;3.21;100.00;96013.31;5026580;28;20207;-83
2021/12/06 11:21:22;;;;;;;5.30;4.07;;;;;;;3.16;100.00;96014.91;5043701;28;20195;-82
2021/12/06 11:24:04;;;;;;;5.67;3.93;;;;;;;3.17;100.00;96028.06;5026636;28;20197;-82
2021/12/06 11:26:32;;;;;;;8.97;5.47;;;;;;;3.17;100.00;96028.06;5059291;28;20246;-82
2021/12/06 11:29:06;;;;;;;9.07;5.37;;;;;;;3.20;100.00;96022.34;5023288;28;20206;-82
2021/12/06 11:31:34;;;;;;;12.43;7.40;;;;;;;3.25;100.00;96022.59;5027884;28;20274;-82
2021/12/06 11:34:03;;;;;;;7.40;4.90;;;;;;;3.30;100.00;96022.03;5040323;28;20219;-82
2021/12/06 11:36:31;;;;;;;6.17;4.40;;;;;;;3.32;100.00;96017.28;5025384;28;20203;-82
2021/12/06 11:39:01;;;;;;;10.00;6.33;;;;;;;3.37;100.00;96038.91;5056259;28;20215;-83
2021/12/06 11:41:29;;;;;;;9.70;5.57;;;;;;;3.35;100.00;96024.91;5059856;28;20225;-83
2021/12/06 11:43:58;;;;;;;7.03;4.50;;;;;;;3.38;100.00;96030.72;5025903;28;20199;-87
2021/12/06 11:46:31;;;;;;;5.40;4.27;;;;;;;3.42;100.00;96028.47;5027550;28;20229;-83
2021/12/06 11:48:59;;;;;;;7.73;4.20;;;;;;;3.43;100.00;96038.13;5043244;28;20203;-84
2021/12/06 11:51:28;;;;;;;5.70;3.90;;;;;;;3.43;100.00;96016.78;5025267;28;20202;-84
2021/12/06 11:53:57;;;;;;;6.20;3.83;;;;;;;3.47;100.00;96022.56;5026248;28;20229;-84